Elberon, Iowa
Current Conditions -  °F | °C
As of 10:15 PM on Sunday 21 Dec 2014 (Local Time) from KVTI Reporting Station
Overcast Overcast  
Wind Chill: 29°   Ceiling: 1200
Heat Index: 38°   Visibility: 7mi
Dew Point: 34°   Wind: 15mph
Humidity: 86%   Direction: 160°SSE
Pressure: 29.83"   Gusts: 29mph
Location:  42.01°N, 92.32°W
Report Text: KVTI 220415Z AUTO 16013G25KT 7SM OVC012 03/01 A2983 RMK AO2 T00310010
Loading
Personal Weather Stations






























Interactive Weather Map New forecast layout! Learn more

10-Day Weather Forecast

Advertisements
Track Severe Weather on mobile